sensor_id;sensor_type;location;lat;lon;timestamp;temperature;humidity
20528;DHT22;23612;50.894;10.700;2023-04-25T00:01:33;6.60;99.90
20528;DHT22;23612;50.894;10.700;2023-04-25T00:04:01;6.60;99.90
20528;DHT22;23612;50.894;10.700;2023-04-25T00:06:27;6.60;99.90
20528;DHT22;23612;50.894;10.700;2023-04-25T00:08:53;6.70;99.90
20528;DHT22;23612;50.894;10.700;2023-04-25T00:11:19;6.70;99.90
20528;DHT22;23612;50.894;10.700;2023-04-25T00:13:45;6.70;99.90
20528;DHT22;23612;50.894;10.700;2023-04-25T00:16:11;6.70;99.90
20528;DHT22;23612;50.894;10.700;2023-04-25T00:18:38;6.70;99.90
20528;DHT22;23612;50.894;10.700;2023-04-25T00:21:04;6.60;99.90
20528;DHT22;23612;50.894;10.700;2023-04-25T00:23:31;6.60;99.90
20528;DHT22;23612;50.894;10.700;2023-04-25T00:25:57;6.60;99.90
20528;DHT22;23612;50.894;10.700;2023-04-25T00:28:22;6.60;99.90
20528;DHT22;23612;50.894;10.700;2023-04-25T00:30:47;6.50;99.90
20528;DHT22;23612;50.894;10.700;2023-04-25T00:33:13;6.60;99.90
20528;DHT22;23612;50.894;10.700;2023-04-25T00:35:38;6.50;99.90
20528;DHT22;23612;50.894;10.700;2023-04-25T00:38:04;6.50;99.90
20528;DHT22;23612;50.894;10.700;2023-04-25T00:40:30;6.50;99.90
20528;DHT22;23612;50.894;10.700;2023-04-25T00:42:55;6.50;99.90
20528;DHT22;23612;50.894;10.700;2023-04-25T00:45:21;6.50;99.90
20528;DHT22;23612;50.894;10.700;2023-04-25T00:47:46;6.50;99.90
20528;DHT22;23612;50.894;10.700;2023-04-25T00:50:13;6.40;99.90
20528;DHT22;23612;50.894;10.700;2023-04-25T00:52:41;6.40;99.90
20528;DHT22;23612;50.894;10.700;2023-04-25T00:55:07;6.50;99.90
20528;DHT22;23612;50.894;10.700;2023-04-25T00:57:34;6.50;99.90
20528;DHT22;23612;50.894;10.700;2023-04-25T01:00:00;6.50;99.90
20528;DHT22;23612;50.894;10.700;2023-04-25T01:02:26;6.50;99.90
20528;DHT22;23612;50.894;10.700;2023-04-25T01:04:52;6.40;99.90
20528;DHT22;23612;50.894;10.700;2023-04-25T01:07:18;6.40;99.90
20528;DHT22;23612;50.894;10.700;2023-04-25T01:09:43;6.40;99.90
20528;DHT22;23612;50.894;10.700;2023-04-25T01:12:09;6.40;99.90
20528;DHT22;23612;50.894;10.700;2023-04-25T01:14:34;6.40;99.90
20528;DHT22;23612;50.894;10.700;2023-04-25T01:17:00;6.40;99.90
20528;DHT22;23612;50.894;10.700;2023-04-25T01:19:25;6.40;99.90
20528;DHT22;23612;50.894;10.700;2023-04-25T01:21:51;6.40;99.90
20528;DHT22;23612;50.894;10.700;2023-04-25T01:24:17;6.40;99.90
20528;DHT22;23612;50.894;10.700;2023-04-25T01:26:43;6.30;99.90
20528;DHT22;23612;50.894;10.700;2023-04-25T01:29:17;6.30;99.90
20528;DHT22;23612;50.894;10.700;2023-04-25T01:31:43;6.30;99.90
20528;DHT22;23612;50.894;10.700;2023-04-25T01:34:09;6.30;99.90
20528;DHT22;23612;50.894;10.700;2023-04-25T01:36:35;6.40;99.90
20528;DHT22;23612;50.894;10.700;2023-04-25T01:39:01;6.40;99.90
20528;DHT22;23612;50.894;10.700;2023-04-25T01:41:27;6.40;99.90
20528;DHT22;23612;50.894;10.700;2023-04-25T01:43:53;6.40;99.90
20528;DHT22;23612;50.894;10.700;2023-04-25T01:46:18;6.50;99.90
20528;DHT22;23612;50.894;10.700;2023-04-25T01:48:44;6.50;99.90
20528;DHT22;23612;50.894;10.700;2023-04-25T01:51:10;6.50;99.90
20528;DHT22;23612;50.894;10.700;2023-04-25T01:53:37;6.50;99.90
20528;DHT22;23612;50.894;10.700;2023-04-25T01:56:03;6.50;99.90
20528;DHT22;23612;50.894;10.700;2023-04-25T01:58:28;6.50;99.90
20528;DHT22;23612;50.894;10.700;2023-04-25T02:00:54;6.50;99.90
20528;DHT22;23612;50.894;10.700;2023-04-25T02:03:19;6.50;99.90
20528;DHT22;23612;50.894;10.700;2023-04-25T02:05:45;6.50;99.90
20528;DHT22;23612;50.894;10.700;2023-04-25T02:08:10;6.60;99.90
20528;DHT22;23612;50.894;10.700;2023-04-25T02:10:36;6.50;99.90
20528;DHT22;23612;50.894;10.700;2023-04-25T02:13:02;6.50;99.90
20528;DHT22;23612;50.894;10.700;2023-04-25T02:15:28;6.50;99.90
20528;DHT22;23612;50.894;10.700;2023-04-25T02:17:53;6.50;99.90
20528;DHT22;23612;50.894;10.700;2023-04-25T02:20:23;6.50;99.90
20528;DHT22;23612;50.894;10.700;2023-04-25T02:22:49;6.50;99.90
20528;DHT22;23612;50.894;10.700;2023-04-25T02:25:15;6.50;99.90
20528;DHT22;23612;50.894;10.700;2023-04-25T02:27:41;6.50;99.90
20528;DHT22;23612;50.894;10.700;2023-04-25T02:30:08;6.40;99.90
20528;DHT22;23612;50.894;10.700;2023-04-25T02:32:33;6.30;99.90
20528;DHT22;23612;50.894;10.700;2023-04-25T02:35:02;6.20;99.90
20528;DHT22;23612;50.894;10.700;2023-04-25T02:37:35;6.10;99.90
20528;DHT22;23612;50.894;10.700;2023-04-25T02:40:00;6.00;99.90
20528;DHT22;23612;50.894;10.700;2023-04-25T02:42:27;5.80;99.90
20528;DHT22;23612;50.894;10.700;2023-04-25T02:44:52;5.70;99.90
20528;DHT22;23612;50.894;10.700;2023-04-25T02:47:18;5.60;99.90
20528;DHT22;23612;50.894;10.700;2023-04-25T02:49:43;5.60;99.90
20528;DHT22;23612;50.894;10.700;2023-04-25T02:52:10;5.50;99.90
20528;DHT22;23612;50.894;10.700;2023-04-25T02:54:36;5.40;99.90
20528;DHT22;23612;50.894;10.700;2023-04-25T02:57:01;5.30;99.90
20528;DHT22;23612;50.894;10.700;2023-04-25T02:59:28;5.30;99.90
20528;DHT22;23612;50.894;10.700;2023-04-25T03:01:53;5.20;99.90
20528;DHT22;23612;50.894;10.700;2023-04-25T03:04:19;5.20;99.90
20528;DHT22;23612;50.894;10.700;2023-04-25T03:06:46;5.10;99.90
20528;DHT22;23612;50.894;10.700;2023-04-25T03:09:11;5.10;99.90
20528;DHT22;23612;50.894;10.700;2023-04-25T03:11:38;5.10;99.90
20528;DHT22;23612;50.894;10.700;2023-04-25T03:14:04;5.00;99.90
20528;DHT22;23612;50.894;10.700;2023-04-25T03:16:29;4.90;99.90
20528;DHT22;23612;50.894;10.700;2023-04-25T03:18:56;4.90;99.90
20528;DHT22;23612;50.894;10.700;2023-04-25T03:21:21;4.80;99.90
20528;DHT22;23612;50.894;10.700;2023-04-25T03:23:47;4.80;99.90
20528;DHT22;23612;50.894;10.700;2023-04-25T03:26:12;4.90;99.90
20528;DHT22;23612;50.894;10.700;2023-04-25T03:28:38;4.80;99.90
20528;DHT22;23612;50.894;10.700;2023-04-25T03:31:05;4.80;99.90
20528;DHT22;23612;50.894;10.700;2023-04-25T03:33:30;4.80;99.90
20528;DHT22;23612;50.894;10.700;2023-04-25T03:35:55;4.80;99.90
20528;DHT22;23612;50.894;10.700;2023-04-25T03:38:21;4.80;99.90
20528;DHT22;23612;50.894;10.700;2023-04-25T03:40:46;4.80;99.90
20528;DHT22;23612;50.894;10.700;2023-04-25T03:43:12;4.70;99.90
20528;DHT22;23612;50.894;10.700;2023-04-25T03:45:37;4.70;99.90
20528;DHT22;23612;50.894;10.700;2023-04-25T03:48:03;4.70;99.90
20528;DHT22;23612;50.894;10.700;2023-04-25T03:50:29;4.70;99.90
20528;DHT22;23612;50.894;10.700;2023-04-25T03:52:54;4.70;99.90
20528;DHT22;23612;50.894;10.700;2023-04-25T03:55:20;4.70;99.90
20528;DHT22;23612;50.894;10.700;2023-04-25T03:57:45;4.80;99.90
20528;DHT22;23612;50.894;10.700;2023-04-25T04:00:11;4.80;99.90
20528;DHT22;23612;50.894;10.700;2023-04-25T04:02:37;4.90;99.90
20528;DHT22;23612;50.894;10.700;2023-04-25T04:05:04;5.00;99.90
20528;DHT22;23612;50.894;10.700;2023-04-25T04:07:31;4.90;99.90
20528;DHT22;23612;50.894;10.700;2023-04-25T04:09:58;5.00;99.90
20528;DHT22;23612;50.894;10.700;2023-04-25T04:12:24;5.00;99.90
20528;DHT22;23612;50.894;10.700;2023-04-25T04:14:49;5.10;99.90
20528;DHT22;23612;50.894;10.700;2023-04-25T04:17:15;5.10;99.90
20528;DHT22;23612;50.894;10.700;2023-04-25T04:19:40;4.90;99.90
20528;DHT22;23612;50.894;10.700;2023-04-25T04:22:06;4.80;99.90
20528;DHT22;23612;50.894;10.700;2023-04-25T04:24:31;4.70;99.90
20528;DHT22;23612;50.894;10.700;2023-04-25T04:26:58;4.70;99.90
20528;DHT22;23612;50.894;10.700;2023-04-25T04:29:24;4.70;99.90
20528;DHT22;23612;50.894;10.700;2023-04-25T04:31:50;4.80;99.90
20528;DHT22;23612;50.894;10.700;2023-04-25T04:34:17;4.90;99.90
20528;DHT22;23612;50.894;10.700;2023-04-25T04:36:44;5.10;99.90
20528;DHT22;23612;50.894;10.700;2023-04-25T04:39:11;5.20;99.90
20528;DHT22;23612;50.894;10.700;2023-04-25T04:41:37;5.30;99.90
20528;DHT22;23612;50.894;10.700;2023-04-25T04:44:02;5.40;99.90
20528;DHT22;23612;50.894;10.700;2023-04-25T04:46:28;5.50;99.90
20528;DHT22;23612;50.894;10.700;2023-04-25T04:48:53;5.40;99.90
20528;DHT22;23612;50.894;10.700;2023-04-25T04:51:19;5.30;99.90
20528;DHT22;23612;50.894;10.700;2023-04-25T04:53:46;5.40;99.90
20528;DHT22;23612;50.894;10.700;2023-04-25T04:56:11;5.40;99.90
20528;DHT22;23612;50.894;10.700;2023-04-25T04:58:37;5.40;99.90
20528;DHT22;23612;50.894;10.700;2023-04-25T05:01:02;5.50;99.90
20528;DHT22;23612;50.894;10.700;2023-04-25T05:03:28;5.50;99.90
20528;DHT22;23612;50.894;10.700;2023-04-25T05:05:54;5.50;99.90
20528;DHT22;23612;50.894;10.700;2023-04-25T05:08:20;5.50;99.90
20528;DHT22;23612;50.894;10.700;2023-04-25T05:10:45;5.60;99.90
20528;DHT22;23612;50.894;10.700;2023-04-25T05:13:11;5.60;99.90
20528;DHT22;23612;50.894;10.700;2023-04-25T05:15:37;5.80;99.90
20528;DHT22;23612;50.894;10.700;2023-04-25T05:18:02;6.00;99.90
20528;DHT22;23612;50.894;10.700;2023-04-25T05:20:28;6.10;99.90
20528;DHT22;23612;50.894;10.700;2023-04-25T05:22:53;6.30;99.90
20528;DHT22;23612;50.894;10.700;2023-04-25T05:25:19;7.00;99.90
20528;DHT22;23612;50.894;10.700;2023-04-25T05:27:44;7.40;99.90
20528;DHT22;23612;50.894;10.700;2023-04-25T05:30:10;7.40;99.90
20528;DHT22;23612;50.894;10.700;2023-04-25T05:32:35;7.40;99.90
20528;DHT22;23612;50.894;10.700;2023-04-25T05:35:01;6.90;99.90
20528;DHT22;23612;50.894;10.700;2023-04-25T05:37:28;6.60;99.90
20528;DHT22;23612;50.894;10.700;2023-04-25T05:39:55;6.60;99.90
20528;DHT22;23612;50.894;10.700;2023-04-25T05:42:21;6.60;99.90
20528;DHT22;23612;50.894;10.700;2023-04-25T05:44:46;6.50;99.90
20528;DHT22;23612;50.894;10.700;2023-04-25T05:47:12;6.50;99.90
20528;DHT22;23612;50.894;10.700;2023-04-25T05:49:37;6.50;99.90
20528;DHT22;23612;50.894;10.700;2023-04-25T05:52:03;6.60;99.90
20528;DHT22;23612;50.894;10.700;2023-04-25T05:54:28;6.60;99.90
20528;DHT22;23612;50.894;10.700;2023-04-25T05:56:54;7.40;99.90
20528;DHT22;23612;50.894;10.700;2023-04-25T05:59:19;7.80;99.90
20528;DHT22;23612;50.894;10.700;2023-04-25T06:01:45;8.20;99.90
20528;DHT22;23612;50.894;10.700;2023-04-25T06:04:11;8.70;99.90
20528;DHT22;23612;50.894;10.700;2023-04-25T06:06:37;8.70;99.90
20528;DHT22;23612;50.894;10.700;2023-04-25T06:09:02;8.50;99.90
20528;DHT22;23612;50.894;10.700;2023-04-25T06:11:28;8.10;99.90
20528;DHT22;23612;50.894;10.700;2023-04-25T06:13:53;7.50;99.90
20528;DHT22;23612;50.894;10.700;2023-04-25T06:16:19;7.30;99.90
20528;DHT22;23612;50.894;10.700;2023-04-25T06:18:44;6.90;99.90
20528;DHT22;23612;50.894;10.700;2023-04-25T06:21:10;6.80;99.90
20528;DHT22;23612;50.894;10.700;2023-04-25T06:23:35;6.90;99.90
20528;DHT22;23612;50.894;10.700;2023-04-25T06:26:01;7.00;99.90
20528;DHT22;23612;50.894;10.700;2023-04-25T06:28:26;7.20;99.90
20528;DHT22;23612;50.894;10.700;2023-04-25T06:30:52;7.30;99.90
20528;DHT22;23612;50.894;10.700;2023-04-25T06:33:17;7.30;99.90
20528;DHT22;23612;50.894;10.700;2023-04-25T06:35:43;7.40;99.90
20528;DHT22;23612;50.894;10.700;2023-04-25T06:38:08;7.50;99.90
20528;DHT22;23612;50.894;10.700;2023-04-25T06:40:34;7.50;99.90
20528;DHT22;23612;50.894;10.700;2023-04-25T06:42:59;7.30;99.90
20528;DHT22;23612;50.894;10.700;2023-04-25T06:45:25;7.20;99.90
20528;DHT22;23612;50.894;10.700;2023-04-25T06:47:51;7.50;99.90
20528;DHT22;23612;50.894;10.700;2023-04-25T06:50:16;7.40;99.90
20528;DHT22;23612;50.894;10.700;2023-04-25T06:52:42;7.40;99.90
20528;DHT22;23612;50.894;10.700;2023-04-25T06:55:07;7.40;99.90
20528;DHT22;23612;50.894;10.700;2023-04-25T06:57:33;7.20;99.90
20528;DHT22;23612;50.894;10.700;2023-04-25T06:59:59;7.00;99.90
20528;DHT22;23612;50.894;10.700;2023-04-25T07:02:24;7.20;99.90
20528;DHT22;23612;50.894;10.700;2023-04-25T07:04:50;7.40;99.90
20528;DHT22;23612;50.894;10.700;2023-04-25T07:07:15;7.50;99.90
20528;DHT22;23612;50.894;10.700;2023-04-25T07:09:42;7.40;99.90
20528;DHT22;23612;50.894;10.700;2023-04-25T07:12:07;7.50;99.90
20528;DHT22;23612;50.894;10.700;2023-04-25T07:14:33;7.50;99.90
20528;DHT22;23612;50.894;10.700;2023-04-25T07:16:58;7.50;99.90
20528;DHT22;23612;50.894;10.700;2023-04-25T07:19:24;7.60;99.90
20528;DHT22;23612;50.894;10.700;2023-04-25T07:21:52;7.80;99.90
20528;DHT22;23612;50.894;10.700;2023-04-25T07:24:17;7.70;99.90
20528;DHT22;23612;50.894;10.700;2023-04-25T07:26:43;7.80;99.90
20528;DHT22;23612;50.894;10.700;2023-04-25T07:29:08;7.60;99.90
20528;DHT22;23612;50.894;10.700;2023-04-25T07:31:34;7.60;99.90
20528;DHT22;23612;50.894;10.700;2023-04-25T07:34:00;7.70;99.90
20528;DHT22;23612;50.894;10.700;2023-04-25T07:36:26;7.80;99.90
20528;DHT22;23612;50.894;10.700;2023-04-25T07:38:52;8.10;99.90
20528;DHT22;23612;50.894;10.700;2023-04-25T07:41:17;8.80;99.90
20528;DHT22;23612;50.894;10.700;2023-04-25T07:43:43;9.00;99.90
20528;DHT22;23612;50.894;10.700;2023-04-25T07:46:08;9.00;99.90
20528;DHT22;23612;50.894;10.700;2023-04-25T07:48:34;8.80;99.90
20528;DHT22;23612;50.894;10.700;2023-04-25T07:50:59;8.60;99.90
20528;DHT22;23612;50.894;10.700;2023-04-25T07:53:25;8.60;99.90
20528;DHT22;23612;50.894;10.700;2023-04-25T07:55:51;8.50;99.90
20528;DHT22;23612;50.894;10.700;2023-04-25T07:58:16;8.30;99.90
20528;DHT22;23612;50.894;10.700;2023-04-25T08:00:46;8.00;99.90
20528;DHT22;23612;50.894;10.700;2023-04-25T08:03:12;7.80;99.90
20528;DHT22;23612;50.894;10.700;2023-04-25T08:05:38;7.40;99.90
20528;DHT22;23612;50.894;10.700;2023-04-25T08:08:03;7.40;99.90
20528;DHT22;23612;50.894;10.700;2023-04-25T08:10:31;7.40;99.90
20528;DHT22;23612;50.894;10.700;2023-04-25T08:12:57;7.40;99.90
20528;DHT22;23612;50.894;10.700;2023-04-25T08:15:22;7.30;99.90
20528;DHT22;23612;50.894;10.700;2023-04-25T08:17:48;7.10;99.90
20528;DHT22;23612;50.894;10.700;2023-04-25T08:20:13;7.00;99.90
20528;DHT22;23612;50.894;10.700;2023-04-25T08:22:39;6.80;99.90
20528;DHT22;23612;50.894;10.700;2023-04-25T08:25:04;6.80;99.90
20528;DHT22;23612;50.894;10.700;2023-04-25T08:27:30;6.90;99.90
20528;DHT22;23612;50.894;10.700;2023-04-25T08:29:55;7.00;99.90
20528;DHT22;23612;50.894;10.700;2023-04-25T08:32:21;7.00;99.90
20528;DHT22;23612;50.894;10.700;2023-04-25T08:34:47;6.90;99.90
20528;DHT22;23612;50.894;10.700;2023-04-25T08:37:12;6.70;99.90
20528;DHT22;23612;50.894;10.700;2023-04-25T08:39:38;6.80;99.90
20528;DHT22;23612;50.894;10.700;2023-04-25T08:42:06;6.90;99.90
20528;DHT22;23612;50.894;10.700;2023-04-25T08:44:36;6.90;99.90
20528;DHT22;23612;50.894;10.700;2023-04-25T08:47:05;7.00;99.90
20528;DHT22;23612;50.894;10.700;2023-04-25T08:49:32;6.90;99.90
20528;DHT22;23612;50.894;10.700;2023-04-25T08:52:00;6.60;99.90
20528;DHT22;23612;50.894;10.700;2023-04-25T08:54:27;6.60;99.90
20528;DHT22;23612;50.894;10.700;2023-04-25T08:56:54;6.60;99.90
20528;DHT22;23612;50.894;10.700;2023-04-25T08:59:23;6.70;99.90
20528;DHT22;23612;50.894;10.700;2023-04-25T09:01:50;6.90;99.90
20528;DHT22;23612;50.894;10.700;2023-04-25T09:04:15;7.00;99.90
20528;DHT22;23612;50.894;10.700;2023-04-25T09:06:41;6.90;99.90
20528;DHT22;23612;50.894;10.700;2023-04-25T09:09:08;6.90;99.90
20528;DHT22;23612;50.894;10.700;2023-04-25T09:11:35;7.00;99.90
20528;DHT22;23612;50.894;10.700;2023-04-25T09:14:15;7.20;99.90
20528;DHT22;23612;50.894;10.700;2023-04-25T09:19:29;7.60;99.90
20528;DHT22;23612;50.894;10.700;2023-04-25T09:22:00;7.50;99.90
20528;DHT22;23612;50.894;10.700;2023-04-25T09:24:55;7.40;99.90
20528;DHT22;23612;50.894;10.700;2023-04-25T09:27:21;7.00;99.90
20528;DHT22;23612;50.894;10.700;2023-04-25T09:29:57;7.20;99.90
20528;DHT22;23612;50.894;10.700;2023-04-25T09:32:25;7.20;99.90
20528;DHT22;23612;50.894;10.700;2023-04-25T09:34:53;7.20;99.90
20528;DHT22;23612;50.894;10.700;2023-04-25T09:37:20;7.10;99.90
20528;DHT22;23612;50.894;10.700;2023-04-25T09:39:51;7.30;99.90
20528;DHT22;23612;50.894;10.700;2023-04-25T09:42:17;7.20;99.90
20528;DHT22;23612;50.894;10.700;2023-04-25T09:44:46;7.20;99.90
20528;DHT22;23612;50.894;10.700;2023-04-25T09:47:13;7.30;99.90
20528;DHT22;23612;50.894;10.700;2023-04-25T09:49:41;7.40;99.90
20528;DHT22;23612;50.894;10.700;2023-04-25T09:52:08;7.40;99.90
20528;DHT22;23612;50.894;10.700;2023-04-25T09:54:33;7.60;99.90
20528;DHT22;23612;50.894;10.700;2023-04-25T09:57:10;7.80;99.90
20528;DHT22;23612;50.894;10.700;2023-04-25T09:59:39;7.80;99.90
20528;DHT22;23612;50.894;10.700;2023-04-25T10:02:07;8.00;99.90
20528;DHT22;23612;50.894;10.700;2023-04-25T10:04:34;8.40;99.90
20528;DHT22;23612;50.894;10.700;2023-04-25T10:07:02;9.30;99.90
20528;DHT22;23612;50.894;10.700;2023-04-25T10:09:29;10.60;99.90
20528;DHT22;23612;50.894;10.700;2023-04-25T10:11:59;11.30;99.90
20528;DHT22;23612;50.894;10.700;2023-04-25T10:14:26;11.50;99.90
20528;DHT22;23612;50.894;10.700;2023-04-25T10:16:52;11.80;99.90
20528;DHT22;23612;50.894;10.700;2023-04-25T10:19:20;12.30;99.90
20528;DHT22;23612;50.894;10.700;2023-04-25T10:21:54;13.00;99.90
20528;DHT22;23612;50.894;10.700;2023-04-25T10:24:21;12.90;99.90
20528;DHT22;23612;50.894;10.700;2023-04-25T10:26:47;13.10;99.90
20528;DHT22;23612;50.894;10.700;2023-04-25T10:29:25;13.10;99.90
20528;DHT22;23612;50.894;10.700;2023-04-25T10:31:50;12.20;99.90
20528;DHT22;23612;50.894;10.700;2023-04-25T10:34:17;11.80;99.90
20528;DHT22;23612;50.894;10.700;2023-04-25T10:36:50;11.30;99.90
20528;DHT22;23612;50.894;10.700;2023-04-25T10:39:22;11.80;99.90
20528;DHT22;23612;50.894;10.700;2023-04-25T10:41:53;12.70;99.90
20528;DHT22;23612;50.894;10.700;2023-04-25T10:44:20;13.70;99.90
20528;DHT22;23612;50.894;10.700;2023-04-25T10:46:46;14.90;99.90
20528;DHT22;23612;50.894;10.700;2023-04-25T10:49:38;15.90;99.90
20528;DHT22;23612;50.894;10.700;2023-04-25T10:54:52;16.70;99.90
20528;DHT22;23612;50.894;10.700;2023-04-25T11:00:10;14.80;99.90
20528;DHT22;23612;50.894;10.700;2023-04-25T11:02:55;13.90;99.90
20528;DHT22;23612;50.894;10.700;2023-04-25T11:05:33;12.80;99.90
20528;DHT22;23612;50.894;10.700;2023-04-25T11:07:59;12.00;99.90
20528;DHT22;23612;50.894;10.700;2023-04-25T11:10:29;11.30;99.90
20528;DHT22;23612;50.894;10.700;2023-04-25T11:12:55;10.70;99.90
20528;DHT22;23612;50.894;10.700;2023-04-25T11:15:20;10.10;99.90
20528;DHT22;23612;50.894;10.700;2023-04-25T11:17:46;9.90;99.90
20528;DHT22;23612;50.894;10.700;2023-04-25T11:20:13;9.40;99.90
20528;DHT22;23612;50.894;10.700;2023-04-25T11:22:40;9.40;99.90
20528;DHT22;23612;50.894;10.700;2023-04-25T11:25:07;9.10;99.90
20528;DHT22;23612;50.894;10.700;2023-04-25T11:27:33;9.10;99.90
20528;DHT22;23612;50.894;10.700;2023-04-25T11:30:13;9.20;99.90
20528;DHT22;23612;50.894;10.700;2023-04-25T11:32:40;9.70;99.90
20528;DHT22;23612;50.894;10.700;2023-04-25T11:35:06;10.90;99.90
20528;DHT22;23612;50.894;10.700;2023-04-25T11:37:32;12.60;99.90
20528;DHT22;23612;50.894;10.700;2023-04-25T11:39:59;14.00;99.90
20528;DHT22;23612;50.894;10.700;2023-04-25T11:42:25;15.10;99.90
20528;DHT22;23612;50.894;10.700;2023-04-25T11:44:51;15.60;99.90
20528;DHT22;23612;50.894;10.700;2023-04-25T11:47:16;15.00;99.90
20528;DHT22;23612;50.894;10.700;2023-04-25T11:49:42;14.20;99.90
20528;DHT22;23612;50.894;10.700;2023-04-25T11:52:07;13.60;99.90
20528;DHT22;23612;50.894;10.700;2023-04-25T11:54:37;13.20;99.90
20528;DHT22;23612;50.894;10.700;2023-04-25T11:57:03;12.50;99.90
20528;DHT22;23612;50.894;10.700;2023-04-25T11:59:29;12.00;99.90
20528;DHT22;23612;50.894;10.700;2023-04-25T12:01:54;11.80;99.90
20528;DHT22;23612;50.894;10.700;2023-04-25T12:04:22;11.90;99.90
20528;DHT22;23612;50.894;10.700;2023-04-25T12:06:50;12.20;99.90
20528;DHT22;23612;50.894;10.700;2023-04-25T12:09:19;11.90;99.90
20528;DHT22;23612;50.894;10.700;2023-04-25T12:11:53;11.30;99.90
20528;DHT22;23612;50.894;10.700;2023-04-25T12:14:30;10.60;99.90
20528;DHT22;23612;50.894;10.700;2023-04-25T12:16:58;10.20;99.90
20528;DHT22;23612;50.894;10.700;2023-04-25T12:19:25;9.80;99.90
20528;DHT22;23612;50.894;10.700;2023-04-25T12:21:51;9.60;99.90
20528;DHT22;23612;50.894;10.700;2023-04-25T12:24:22;9.60;99.90
20528;DHT22;23612;50.894;10.700;2023-04-25T12:27:04;9.50;99.90
20528;DHT22;23612;50.894;10.700;2023-04-25T12:29:32;9.40;99.90
20528;DHT22;23612;50.894;10.700;2023-04-25T12:31:58;9.40;99.90
20528;DHT22;23612;50.894;10.700;2023-04-25T12:34:23;9.40;99.90
20528;DHT22;23612;50.894;10.700;2023-04-25T12:36:50;9.30;99.90
20528;DHT22;23612;50.894;10.700;2023-04-25T12:39:17;9.00;99.90
20528;DHT22;23612;50.894;10.700;2023-04-25T12:41:43;8.90;99.90
20528;DHT22;23612;50.894;10.700;2023-04-25T12:44:09;8.90;99.90
20528;DHT22;23612;50.894;10.700;2023-04-25T12:46:35;9.00;99.90
20528;DHT22;23612;50.894;10.700;2023-04-25T12:49:01;9.20;99.90
20528;DHT22;23612;50.894;10.700;2023-04-25T12:51:28;9.70;99.90
20528;DHT22;23612;50.894;10.700;2023-04-25T12:53:54;9.60;99.90
20528;DHT22;23612;50.894;10.700;2023-04-25T12:56:19;9.70;99.90
20528;DHT22;23612;50.894;10.700;2023-04-25T12:58:45;9.60;99.90
20528;DHT22;23612;50.894;10.700;2023-04-25T13:01:11;9.90;99.90
20528;DHT22;23612;50.894;10.700;2023-04-25T13:03:37;10.60;99.90
20528;DHT22;23612;50.894;10.700;2023-04-25T13:06:03;10.80;99.90
20528;DHT22;23612;50.894;10.700;2023-04-25T13:08:29;11.20;99.90
20528;DHT22;23612;50.894;10.700;2023-04-25T13:10:55;11.70;99.90
20528;DHT22;23612;50.894;10.700;2023-04-25T13:13:20;12.10;99.90
20528;DHT22;23612;50.894;10.700;2023-04-25T13:15:46;12.30;99.90
20528;DHT22;23612;50.894;10.700;2023-04-25T13:18:11;12.10;99.90
20528;DHT22;23612;50.894;10.700;2023-04-25T13:20:37;11.50;99.90
20528;DHT22;23612;50.894;10.700;2023-04-25T13:23:02;10.90;99.90
20528;DHT22;23612;50.894;10.700;2023-04-25T13:25:27;10.20;99.90
20528;DHT22;23612;50.894;10.700;2023-04-25T13:27:53;9.90;99.90
20528;DHT22;23612;50.894;10.700;2023-04-25T13:30:18;9.50;99.90
20528;DHT22;23612;50.894;10.700;2023-04-25T13:32:44;9.30;99.90
20528;DHT22;23612;50.894;10.700;2023-04-25T13:35:11;9.30;99.90
20528;DHT22;23612;50.894;10.700;2023-04-25T13:37:38;9.30;99.90
20528;DHT22;23612;50.894;10.700;2023-04-25T13:40:08;9.60;99.90
20528;DHT22;23612;50.894;10.700;2023-04-25T13:42:35;9.70;99.90
20528;DHT22;23612;50.894;10.700;2023-04-25T13:45:01;9.60;99.90
20528;DHT22;23612;50.894;10.700;2023-04-25T13:47:27;9.60;99.90
20528;DHT22;23612;50.894;10.700;2023-04-25T13:49:53;9.90;99.90
20528;DHT22;23612;50.894;10.700;2023-04-25T13:52:18;10.40;99.90
20528;DHT22;23612;50.894;10.700;2023-04-25T13:54:44;10.60;99.90
20528;DHT22;23612;50.894;10.700;2023-04-25T13:57:10;10.80;99.90
20528;DHT22;23612;50.894;10.700;2023-04-25T13:59:36;10.70;99.90
20528;DHT22;23612;50.894;10.700;2023-04-25T14:02:01;10.60;99.90
20528;DHT22;23612;50.894;10.700;2023-04-25T14:04:27;10.20;99.90
20528;DHT22;23612;50.894;10.700;2023-04-25T14:06:53;9.70;99.90
20528;DHT22;23612;50.894;10.700;2023-04-25T14:09:19;9.60;99.90
20528;DHT22;23612;50.894;10.700;2023-04-25T14:11:47;9.60;99.90
20528;DHT22;23612;50.894;10.700;2023-04-25T14:14:13;9.70;99.90
20528;DHT22;23612;50.894;10.700;2023-04-25T14:16:41;9.50;99.90
20528;DHT22;23612;50.894;10.700;2023-04-25T14:19:06;9.60;99.90
20528;DHT22;23612;50.894;10.700;2023-04-25T14:21:32;9.80;99.90
20528;DHT22;23612;50.894;10.700;2023-04-25T14:23:57;10.10;99.90
20528;DHT22;23612;50.894;10.700;2023-04-25T14:26:23;10.10;99.90
20528;DHT22;23612;50.894;10.700;2023-04-25T14:28:51;10.00;99.90
20528;DHT22;23612;50.894;10.700;2023-04-25T14:31:17;10.00;99.90
20528;DHT22;23612;50.894;10.700;2023-04-25T14:33:42;10.20;99.90
20528;DHT22;23612;50.894;10.700;2023-04-25T14:36:08;10.40;99.90
20528;DHT22;23612;50.894;10.700;2023-04-25T14:38:34;10.60;99.90
20528;DHT22;23612;50.894;10.700;2023-04-25T14:40:59;10.50;99.90
20528;DHT22;23612;50.894;10.700;2023-04-25T14:43:25;10.30;99.90
20528;DHT22;23612;50.894;10.700;2023-04-25T14:45:51;10.20;99.90
20528;DHT22;23612;50.894;10.700;2023-04-25T14:48:17;10.10;99.90
20528;DHT22;23612;50.894;10.700;2023-04-25T14:50:44;10.10;99.90
20528;DHT22;23612;50.894;10.700;2023-04-25T14:53:10;10.30;99.90
20528;DHT22;23612;50.894;10.700;2023-04-25T14:55:36;10.30;99.90
20528;DHT22;23612;50.894;10.700;2023-04-25T14:58:01;10.40;99.90
20528;DHT22;23612;50.894;10.700;2023-04-25T15:00:27;10.40;99.90
20528;DHT22;23612;50.894;10.700;2023-04-25T15:02:52;10.50;99.90
20528;DHT22;23612;50.894;10.700;2023-04-25T15:05:18;10.30;99.90
20528;DHT22;23612;50.894;10.700;2023-04-25T15:07:43;10.20;99.90
20528;DHT22;23612;50.894;10.700;2023-04-25T15:10:10;10.00;99.90
20528;DHT22;23612;50.894;10.700;2023-04-25T15:12:41;9.80;99.90
20528;DHT22;23612;50.894;10.700;2023-04-25T15:15:07;9.70;99.90
20528;DHT22;23612;50.894;10.700;2023-04-25T15:17:43;9.70;99.90
20528;DHT22;23612;50.894;10.700;2023-04-25T15:20:10;9.80;99.90
20528;DHT22;23612;50.894;10.700;2023-04-25T15:22:37;9.80;99.90
20528;DHT22;23612;50.894;10.700;2023-04-25T15:25:03;9.60;99.90
20528;DHT22;23612;50.894;10.700;2023-04-25T15:27:29;9.50;99.90
20528;DHT22;23612;50.894;10.700;2023-04-25T15:29:54;9.50;99.90
20528;DHT22;23612;50.894;10.700;2023-04-25T15:32:20;9.50;99.90